LVMDE SABE-SANE
Flight info
| Callsign | LVMDE |
|---|---|
| Flight time | 1h 28m |
| Altitude | 47000 |
| Route | BIVAM4B BIVAM UW8 ERE UT680 EDVIK |
| Aircraft | GLF6/M-SBDE2E3FGHIJ1J4J5P2RWXYZ/LB2D1G1 |
Departure
| Time | 2026-05-07 16:15 |
|---|---|
| Airport | Aeroparque Jorge Newbery (SABE) |
Arrival
| Time | 2026-05-07 17:43 |
|---|---|
| Airport | Vicecomodoro Angel D. La Paz Aragonés Airport (SANE) |
| Time | Latitude | Longitude | Altitude | Speed | Heading |
|---|---|---|---|---|---|
| 2026-05-07 15:57 | -34.56296 | -58.41216 | 27 ft | 0 kts | 213° |
| 2026-05-07 16:10 | -34.56297 | -58.41217 | 27 ft | 1 kts | 214° |
| 2026-05-07 16:10 | -34.56318 | -58.41225 | 27 ft | 4 kts | 156° |
| 2026-05-07 16:10 | -34.56300 | -58.41172 | 27 ft | 9 kts | 44° |
| 2026-05-07 16:11 | -34.56275 | -58.41151 | 27 ft | 0 kts | 34° |
| 2026-05-07 16:14 | -34.56267 | -58.41145 | 27 ft | 3 kts | 32° |
| 2026-05-07 16:14 | -34.56240 | -58.41123 | 27 ft | 6 kts | 35° |
| 2026-05-07 16:14 | -34.56171 | -58.41130 | 27 ft | 25 kts | 304° |
| 2026-05-07 16:15 | -34.55831 | -58.41734 | 71 ft | 149 kts | 303° |
| 2026-05-07 16:15 | -34.55120 | -58.42945 | 985 ft | 203 kts | 303° |
| 2026-05-07 16:15 | -34.54038 | -58.44089 | 1926 ft | 220 kts | 338° |
| 2026-05-07 16:15 | -34.52539 | -58.44543 | 2490 ft | 227 kts | 340° |
| 2026-05-07 16:16 | -34.51076 | -58.45361 | 2440 ft | 227 kts | 333° |
| 2026-05-07 16:16 | -34.49573 | -58.46183 | 3009 ft | 259 kts | 334° |
| 2026-05-07 16:16 | -34.47940 | -58.47077 | 4016 ft | 263 kts | 334° |
| 2026-05-07 16:16 | -34.46201 | -58.47854 | 5315 ft | 280 kts | 345° |
| 2026-05-07 16:17 | -34.44427 | -58.48363 | 7430 ft | 271 kts | 345° |
| 2026-05-07 16:17 | -34.42595 | -58.48861 | 8913 ft | 285 kts | 346° |
| 2026-05-07 16:17 | -34.40649 | -58.49366 | 10395 ft | 297 kts | 346° |
| 2026-05-07 16:17 | -34.38468 | -58.49923 | 10668 ft | 344 kts | 347° |
| 2026-05-07 16:18 | -34.36021 | -58.50539 | 11613 ft | 365 kts | 347° |
| 2026-05-07 16:18 | -34.33635 | -58.51136 | 13564 ft | 356 kts | 346° |
| 2026-05-07 16:18 | -34.31197 | -58.51747 | 14709 ft | 370 kts | 346° |
| 2026-05-07 16:18 | -34.28658 | -58.52384 | 16052 ft | 377 kts | 345° |
| 2026-05-07 16:19 | -34.26142 | -58.53015 | 17478 ft | 381 kts | 345° |
| 2026-05-07 16:19 | -34.23497 | -58.53679 | 18763 ft | 390 kts | 344° |
| 2026-05-07 16:19 | -34.20866 | -58.54337 | 20135 ft | 395 kts | 343° |
| 2026-05-07 16:19 | -34.18217 | -58.55103 | 21417 ft | 397 kts | 335° |
| 2026-05-07 16:20 | -34.15916 | -58.56881 | 22690 ft | 392 kts | 311° |
| 2026-05-07 16:20 | -34.14475 | -58.59550 | 24119 ft | 385 kts | 292° |
| 2026-05-07 16:20 | -34.13604 | -58.62588 | 25238 ft | 389 kts | 279° |
| 2026-05-07 16:20 | -34.13524 | -58.65873 | 26350 ft | 395 kts | 267° |
| 2026-05-07 16:21 | -34.13798 | -58.69140 | 27639 ft | 395 kts | 265° |
| 2026-05-07 16:21 | -34.14144 | -58.72424 | 28571 ft | 403 kts | 264° |
| 2026-05-07 16:21 | -34.14461 | -58.75827 | 29525 ft | 407 kts | 270° |
| 2026-05-07 16:21 | -34.13942 | -58.79151 | 30455 ft | 413 kts | 290° |
| 2026-05-07 16:22 | -34.12553 | -58.82184 | 31650 ft | 414 kts | 303° |
| 2026-05-07 16:22 | -34.10509 | -58.84552 | 32891 ft | 416 kts | 318° |
| 2026-05-07 16:22 | -34.08115 | -58.86470 | 34114 ft | 412 kts | 322° |
| 2026-05-07 16:22 | -34.05676 | -58.88287 | 35076 ft | 412 kts | 322° |
| 2026-05-07 16:23 | -34.03252 | -58.90067 | 35971 ft | 411 kts | 323° |
| 2026-05-07 16:23 | -34.00823 | -58.91844 | 36876 ft | 409 kts | 323° |
| 2026-05-07 16:23 | -33.98410 | -58.93608 | 37636 ft | 410 kts | 323° |
| 2026-05-07 16:23 | -33.95982 | -58.95383 | 38376 ft | 411 kts | 323° |
| 2026-05-07 16:24 | -33.93557 | -58.97157 | 39114 ft | 410 kts | 323° |
| 2026-05-07 16:24 | -33.91134 | -58.98930 | 39809 ft | 411 kts | 323° |
| 2026-05-07 16:24 | -33.88671 | -59.00729 | 40472 ft | 411 kts | 323° |
| 2026-05-07 16:24 | -33.86215 | -59.02523 | 41123 ft | 411 kts | 323° |
| 2026-05-07 16:25 | -33.83787 | -59.04295 | 41744 ft | 412 kts | 323° |
| 2026-05-07 16:25 | -33.81344 | -59.06076 | 42359 ft | 412 kts | 323° |
| 2026-05-07 16:25 | -33.78910 | -59.07849 | 42946 ft | 412 kts | 323° |
| 2026-05-07 16:25 | -33.76455 | -59.09638 | 43515 ft | 412 kts | 323° |
| 2026-05-07 16:26 | -33.74016 | -59.11412 | 44044 ft | 410 kts | 323° |
| 2026-05-07 16:26 | -33.71563 | -59.13197 | 44156 ft | 412 kts | 323° |
| 2026-05-07 16:26 | -33.69111 | -59.14979 | 44168 ft | 411 kts | 323° |
| 2026-05-07 16:27 | -33.64245 | -59.18512 | 44165 ft | 409 kts | 323° |
| 2026-05-07 16:27 | -33.59377 | -59.22041 | 44167 ft | 409 kts | 323° |
| 2026-05-07 16:28 | -33.54528 | -59.25553 | 44166 ft | 410 kts | 323° |
| 2026-05-07 16:28 | -33.49662 | -59.29072 | 44165 ft | 409 kts | 323° |
| 2026-05-07 16:29 | -33.44774 | -59.32602 | 44164 ft | 409 kts | 323° |
| 2026-05-07 16:29 | -33.39895 | -59.36121 | 44170 ft | 409 kts | 323° |
| 2026-05-07 16:30 | -33.35046 | -59.39614 | 44191 ft | 409 kts | 323° |
| 2026-05-07 16:30 | -33.30150 | -59.43136 | 44224 ft | 409 kts | 323° |
| 2026-05-07 16:31 | -33.25292 | -59.46626 | 44261 ft | 410 kts | 323° |
| 2026-05-07 16:31 | -33.20411 | -59.50129 | 44279 ft | 410 kts | 323° |
| 2026-05-07 16:32 | -33.15552 | -59.53610 | 44295 ft | 410 kts | 323° |
| 2026-05-07 16:32 | -33.10659 | -59.57111 | 44295 ft | 409 kts | 323° |
| 2026-05-07 16:33 | -33.05824 | -59.60564 | 44292 ft | 401 kts | 323° |
| 2026-05-07 16:33 | -33.01108 | -59.63929 | 44290 ft | 395 kts | 322° |
| 2026-05-07 16:34 | -32.96423 | -59.67268 | 44307 ft | 390 kts | 322° |
| 2026-05-07 16:34 | -32.91792 | -59.70569 | 44306 ft | 388 kts | 322° |
| 2026-05-07 16:35 | -32.87169 | -59.73856 | 44312 ft | 389 kts | 322° |
| 2026-05-07 16:35 | -32.82496 | -59.77175 | 44310 ft | 389 kts | 322° |
| 2026-05-07 16:36 | -32.77876 | -59.80452 | 44309 ft | 389 kts | 322° |
| 2026-05-07 16:36 | -32.73257 | -59.83724 | 44308 ft | 389 kts | 322° |
| 2026-05-07 16:37 | -32.68590 | -59.87027 | 44308 ft | 389 kts | 322° |
| 2026-05-07 16:37 | -32.63981 | -59.90284 | 44307 ft | 389 kts | 322° |
| 2026-05-07 16:38 | -32.59327 | -59.93570 | 44306 ft | 389 kts | 322° |
| 2026-05-07 16:38 | -32.54700 | -59.96837 | 44305 ft | 389 kts | 322° |
| 2026-05-07 16:39 | -32.50035 | -60.00127 | 44304 ft | 389 kts | 322° |
| 2026-05-07 16:39 | -32.45395 | -60.03395 | 44303 ft | 389 kts | 322° |
| 2026-05-07 16:40 | -32.40758 | -60.06657 | 44302 ft | 389 kts | 322° |
| 2026-05-07 16:40 | -32.36111 | -60.09922 | 44301 ft | 389 kts | 322° |
| 2026-05-07 16:41 | -32.31457 | -60.13188 | 44300 ft | 389 kts | 322° |
| 2026-05-07 16:41 | -32.26837 | -60.16427 | 44299 ft | 389 kts | 322° |
| 2026-05-07 16:42 | -32.22196 | -60.19676 | 44298 ft | 389 kts | 322° |
| 2026-05-07 16:42 | -32.17530 | -60.22939 | 44297 ft | 389 kts | 322° |
| 2026-05-07 16:43 | -32.12893 | -60.26178 | 44296 ft | 389 kts | 322° |
| 2026-05-07 16:43 | -32.08258 | -60.29411 | 44295 ft | 389 kts | 322° |
| 2026-05-07 16:44 | -32.03595 | -60.32659 | 44294 ft | 389 kts | 322° |
| 2026-05-07 16:44 | -31.98967 | -60.35880 | 44293 ft | 389 kts | 322° |
| 2026-05-07 16:45 | -31.94300 | -60.39124 | 44293 ft | 389 kts | 322° |
| 2026-05-07 16:45 | -31.89637 | -60.42362 | 44292 ft | 389 kts | 322° |
| 2026-05-07 16:46 | -31.84987 | -60.45586 | 44297 ft | 389 kts | 322° |
| 2026-05-07 16:46 | -31.80355 | -60.48842 | 44296 ft | 387 kts | 320° |
| 2026-05-07 16:47 | -31.75846 | -60.52273 | 44296 ft | 387 kts | 319° |
| 2026-05-07 16:47 | -31.71334 | -60.55713 | 44295 ft | 386 kts | 319° |
| 2026-05-07 16:48 | -31.66828 | -60.59145 | 44294 ft | 386 kts | 319° |
| 2026-05-07 16:48 | -31.62319 | -60.62576 | 44293 ft | 386 kts | 319° |
| 2026-05-07 16:49 | -31.57824 | -60.65992 | 44307 ft | 387 kts | 320° |
| 2026-05-07 16:49 | -31.53313 | -60.69416 | 44310 ft | 387 kts | 320° |
| 2026-05-07 16:50 | -31.48832 | -60.72813 | 44309 ft | 387 kts | 320° |
| 2026-05-07 16:50 | -31.44305 | -60.76242 | 44308 ft | 387 kts | 320° |
| 2026-05-07 16:51 | -31.39795 | -60.79653 | 44307 ft | 387 kts | 320° |
| 2026-05-07 16:51 | -31.35256 | -60.83083 | 44306 ft | 387 kts | 320° |
| 2026-05-07 16:52 | -31.30740 | -60.86491 | 44305 ft | 387 kts | 320° |
| 2026-05-07 16:52 | -31.26227 | -60.89893 | 44304 ft | 387 kts | 320° |
| 2026-05-07 16:53 | -31.21723 | -60.93284 | 44303 ft | 387 kts | 320° |
| 2026-05-07 16:53 | -31.17176 | -60.96704 | 44302 ft | 387 kts | 320° |
| 2026-05-07 16:54 | -31.12675 | -61.00086 | 44741 ft | 394 kts | 320° |
| 2026-05-07 16:54 | -31.10386 | -61.01802 | 45432 ft | 389 kts | 320° |
| 2026-05-07 16:54 | -31.08120 | -61.03503 | 45860 ft | 390 kts | 320° |
| 2026-05-07 16:54 | -31.05853 | -61.05204 | 46177 ft | 393 kts | 320° |
| 2026-05-07 16:55 | -31.03557 | -61.06923 | 46581 ft | 394 kts | 321° |
| 2026-05-07 16:55 | -31.01307 | -61.08598 | 46775 ft | 376 kts | 321° |
| 2026-05-07 16:55 | -30.99247 | -61.10136 | 46759 ft | 366 kts | 320° |
| 2026-05-07 16:56 | -30.95052 | -61.13272 | 46802 ft | 371 kts | 320° |
| 2026-05-07 16:56 | -30.88666 | -61.18029 | 46800 ft | 375 kts | 320° |
| 2026-05-07 16:57 | -30.84497 | -61.21131 | 46803 ft | 375 kts | 320° |
| 2026-05-07 16:57 | -30.79558 | -61.24802 | 46801 ft | 376 kts | 320° |
| 2026-05-07 16:58 | -30.75881 | -61.27531 | 46799 ft | 375 kts | 320° |
| 2026-05-07 16:58 | -30.71503 | -61.30779 | 46800 ft | 375 kts | 320° |
| 2026-05-07 16:59 | -30.67088 | -61.34049 | 46799 ft | 376 kts | 320° |
| 2026-05-07 16:59 | -30.62700 | -61.37297 | 46797 ft | 375 kts | 320° |
| 2026-05-07 17:00 | -30.57634 | -61.41042 | 46799 ft | 375 kts | 320° |
| 2026-05-07 17:00 | -30.53977 | -61.43742 | 46796 ft | 375 kts | 320° |
| 2026-05-07 17:01 | -30.49563 | -61.46997 | 46795 ft | 375 kts | 320° |
| 2026-05-07 17:01 | -30.45451 | -61.50028 | 46797 ft | 375 kts | 320° |
| 2026-05-07 17:02 | -30.40859 | -61.53408 | 46795 ft | 376 kts | 320° |
| 2026-05-07 17:02 | -30.36451 | -61.56649 | 46795 ft | 375 kts | 320° |
| 2026-05-07 17:03 | -30.32041 | -61.59887 | 46791 ft | 375 kts | 320° |
| 2026-05-07 17:03 | -30.27627 | -61.63126 | 46791 ft | 375 kts | 320° |
| 2026-05-07 17:04 | -30.23219 | -61.66356 | 46810 ft | 376 kts | 321° |
| 2026-05-07 17:04 | -30.18808 | -61.69585 | 46809 ft | 377 kts | 321° |
| 2026-05-07 17:05 | -30.14408 | -61.72803 | 46807 ft | 375 kts | 321° |
| 2026-05-07 17:05 | -30.09986 | -61.76033 | 46808 ft | 376 kts | 321° |
| 2026-05-07 17:06 | -30.05575 | -61.79253 | 46805 ft | 376 kts | 321° |
| 2026-05-07 17:06 | -30.01180 | -61.82456 | 46803 ft | 376 kts | 321° |
| 2026-05-07 17:07 | -29.96818 | -61.85632 | 46804 ft | 375 kts | 321° |
| 2026-05-07 17:07 | -29.92352 | -61.88882 | 46805 ft | 376 kts | 321° |
| 2026-05-07 17:08 | -29.87947 | -61.92126 | 46805 ft | 373 kts | 317° |
| 2026-05-07 17:08 | -29.84129 | -61.96049 | 46806 ft | 368 kts | 311° |
| 2026-05-07 17:09 | -29.79802 | -62.00775 | 46805 ft | 367 kts | 311° |
| 2026-05-07 17:09 | -29.76727 | -62.04137 | 46805 ft | 367 kts | 311° |
| 2026-05-07 17:10 | -29.72998 | -62.08210 | 46806 ft | 367 kts | 311° |
| 2026-05-07 17:10 | -29.69308 | -62.12236 | 46803 ft | 368 kts | 311° |
| 2026-05-07 17:11 | -29.65582 | -62.16297 | 46798 ft | 367 kts | 311° |
| 2026-05-07 17:11 | -29.61224 | -62.21042 | 46441 ft | 371 kts | 311° |
| 2026-05-07 17:12 | -29.59990 | -62.22384 | 46198 ft | 370 kts | 311° |
| 2026-05-07 17:12 | -29.58118 | -62.24419 | 45801 ft | 368 kts | 311° |
| 2026-05-07 17:12 | -29.56259 | -62.26439 | 45405 ft | 366 kts | 311° |
| 2026-05-07 17:12 | -29.53773 | -62.29139 | 44872 ft | 366 kts | 311° |
| 2026-05-07 17:13 | -29.52563 | -62.30453 | 44611 ft | 366 kts | 311° |
| 2026-05-07 17:13 | -29.50689 | -62.32486 | 44211 ft | 367 kts | 311° |
| 2026-05-07 17:13 | -29.48869 | -62.34459 | 43827 ft | 366 kts | 311° |
| 2026-05-07 17:13 | -29.46982 | -62.36505 | 43427 ft | 367 kts | 311° |
| 2026-05-07 17:14 | -29.45146 | -62.38494 | 43042 ft | 367 kts | 311° |
| 2026-05-07 17:14 | -29.43309 | -62.40482 | 42649 ft | 367 kts | 311° |
| 2026-05-07 17:14 | -29.41445 | -62.42500 | 42253 ft | 367 kts | 311° |
| 2026-05-07 17:14 | -29.39166 | -62.44965 | 41753 ft | 367 kts | 311° |
| 2026-05-07 17:15 | -29.37231 | -62.47055 | 41331 ft | 366 kts | 311° |
| 2026-05-07 17:15 | -29.36009 | -62.48375 | 41060 ft | 366 kts | 311° |
| 2026-05-07 17:15 | -29.34161 | -62.50372 | 40660 ft | 366 kts | 311° |
| 2026-05-07 17:15 | -29.32302 | -62.52378 | 40247 ft | 367 kts | 311° |
| 2026-05-07 17:16 | -29.30442 | -62.54385 | 39842 ft | 367 kts | 311° |
| 2026-05-07 17:16 | -29.28579 | -62.56394 | 39435 ft | 367 kts | 311° |
| 2026-05-07 17:16 | -29.26732 | -62.58384 | 39031 ft | 366 kts | 311° |
| 2026-05-07 17:16 | -29.24879 | -62.60380 | 38628 ft | 366 kts | 311° |
| 2026-05-07 17:17 | -29.23028 | -62.62373 | 38221 ft | 367 kts | 311° |
| 2026-05-07 17:17 | -29.20556 | -62.65032 | 37680 ft | 367 kts | 311° |
| 2026-05-07 17:17 | -29.19325 | -62.66356 | 37427 ft | 367 kts | 311° |
| 2026-05-07 17:17 | -29.17461 | -62.68359 | 37029 ft | 367 kts | 311° |
| 2026-05-07 17:18 | -29.15625 | -62.70331 | 36628 ft | 367 kts | 311° |
| 2026-05-07 17:18 | -29.13754 | -62.72340 | 36219 ft | 367 kts | 311° |
| 2026-05-07 17:18 | -29.11896 | -62.74334 | 35811 ft | 368 kts | 311° |
| 2026-05-07 17:18 | -29.10031 | -62.76335 | 35405 ft | 369 kts | 311° |
| 2026-05-07 17:19 | -29.08155 | -62.78347 | 34995 ft | 370 kts | 311° |
| 2026-05-07 17:19 | -29.05668 | -62.81011 | 34450 ft | 372 kts | 312° |
| 2026-05-07 17:19 | -29.04393 | -62.82376 | 34171 ft | 374 kts | 312° |
| 2026-05-07 17:19 | -29.02498 | -62.84405 | 33758 ft | 376 kts | 312° |
| 2026-05-07 17:20 | -29.00589 | -62.86449 | 33341 ft | 377 kts | 313° |
| 2026-05-07 17:20 | -28.98687 | -62.88483 | 32924 ft | 379 kts | 313° |
| 2026-05-07 17:20 | -28.96762 | -62.90540 | 32501 ft | 381 kts | 313° |
| 2026-05-07 17:20 | -28.94842 | -62.92590 | 32082 ft | 382 kts | 314° |
| 2026-05-07 17:21 | -28.92902 | -62.94658 | 31660 ft | 384 kts | 314° |
| 2026-05-07 17:21 | -28.90952 | -62.96738 | 31235 ft | 385 kts | 314° |
| 2026-05-07 17:21 | -28.89015 | -62.98803 | 30813 ft | 389 kts | 314° |
| 2026-05-07 17:21 | -28.86950 | -63.01006 | 30427 ft | 413 kts | 315° |
| 2026-05-07 17:22 | -28.84824 | -63.03267 | 29948 ft | 411 kts | 315° |
| 2026-05-07 17:22 | -28.82756 | -63.05466 | 29453 ft | 405 kts | 315° |
| 2026-05-07 17:22 | -28.80689 | -63.07665 | 28993 ft | 402 kts | 315° |
| 2026-05-07 17:22 | -28.78657 | -63.09825 | 28550 ft | 399 kts | 315° |
| 2026-05-07 17:23 | -28.76646 | -63.11960 | 28113 ft | 396 kts | 315° |
| 2026-05-07 17:23 | -28.74654 | -63.14077 | 27679 ft | 393 kts | 316° |
| 2026-05-07 17:23 | -28.72655 | -63.16199 | 27244 ft | 391 kts | 316° |
| 2026-05-07 17:23 | -28.70003 | -63.19011 | 26667 ft | 388 kts | 316° |
| 2026-05-07 17:24 | -28.68671 | -63.20423 | 26372 ft | 407 kts | 316° |
| 2026-05-07 17:24 | -28.66448 | -63.22536 | 25650 ft | 426 kts | 321° |
| 2026-05-07 17:24 | -28.63325 | -63.25248 | 25096 ft | 421 kts | 322° |
| 2026-05-07 17:24 | -28.61003 | -63.27267 | 24487 ft | 418 kts | 322° |
| 2026-05-07 17:25 | -28.58746 | -63.29229 | 23582 ft | 409 kts | 322° |
| 2026-05-07 17:25 | -28.57247 | -63.30531 | 22945 ft | 407 kts | 322° |
| 2026-05-07 17:25 | -28.55027 | -63.32459 | 21995 ft | 403 kts | 323° |
| 2026-05-07 17:25 | -28.52825 | -63.34370 | 21049 ft | 399 kts | 323° |
| 2026-05-07 17:26 | -28.50623 | -63.36280 | 20113 ft | 395 kts | 323° |
| 2026-05-07 17:26 | -28.48484 | -63.38135 | 19206 ft | 391 kts | 324° |
| 2026-05-07 17:26 | -28.45719 | -63.40533 | 18384 ft | 342 kts | 324° |
| 2026-05-07 17:26 | -28.44454 | -63.41627 | 18100 ft | 345 kts | 324° |
| 2026-05-07 17:27 | -28.42529 | -63.43292 | 17724 ft | 346 kts | 324° |
| 2026-05-07 17:27 | -28.40628 | -63.44936 | 17369 ft | 346 kts | 324° |
| 2026-05-07 17:27 | -28.38718 | -63.46587 | 17015 ft | 345 kts | 324° |
| 2026-05-07 17:27 | -28.36797 | -63.48248 | 16658 ft | 344 kts | 325° |
| 2026-05-07 17:28 | -28.34275 | -63.50427 | 16186 ft | 342 kts | 325° |
| 2026-05-07 17:28 | -28.33018 | -63.51512 | 15949 ft | 342 kts | 325° |
| 2026-05-07 17:28 | -28.31128 | -63.53144 | 15594 ft | 340 kts | 325° |
| 2026-05-07 17:28 | -28.29258 | -63.54758 | 15240 ft | 339 kts | 325° |
| 2026-05-07 17:29 | -28.27362 | -63.56393 | 14880 ft | 338 kts | 325° |
| 2026-05-07 17:29 | -28.25501 | -63.57997 | 14525 ft | 337 kts | 325° |
| 2026-05-07 17:29 | -28.23646 | -63.59595 | 14171 ft | 336 kts | 325° |
| 2026-05-07 17:29 | -28.21148 | -63.61747 | 13692 ft | 335 kts | 326° |
| 2026-05-07 17:30 | -28.19325 | -63.63316 | 13341 ft | 334 kts | 326° |
| 2026-05-07 17:30 | -28.18087 | -63.64381 | 13102 ft | 333 kts | 326° |
| 2026-05-07 17:30 | -28.16252 | -63.65960 | 12747 ft | 332 kts | 326° |
| 2026-05-07 17:30 | -28.14404 | -63.67548 | 12388 ft | 331 kts | 326° |
| 2026-05-07 17:31 | -28.12577 | -63.69119 | 12033 ft | 330 kts | 326° |
| 2026-05-07 17:31 | -28.10780 | -63.70661 | 11681 ft | 327 kts | 326° |
| 2026-05-07 17:31 | -28.08968 | -63.72216 | 11323 ft | 324 kts | 325° |
| 2026-05-07 17:31 | -28.06586 | -63.74259 | 10850 ft | 319 kts | 324° |
| 2026-05-07 17:32 | -28.05477 | -63.75214 | 10653 ft | 278 kts | 324° |
| 2026-05-07 17:32 | -28.04005 | -63.76475 | 9917 ft | 260 kts | 323° |
| 2026-05-07 17:32 | -28.02592 | -63.77683 | 9202 ft | 258 kts | 322° |
| 2026-05-07 17:32 | -28.01188 | -63.78955 | 8425 ft | 257 kts | 314° |
| 2026-05-07 17:33 | -28.00063 | -63.80477 | 7737 ft | 256 kts | 307° |
| 2026-05-07 17:33 | -27.98952 | -63.82069 | 7156 ft | 257 kts | 307° |
| 2026-05-07 17:33 | -27.97847 | -63.83657 | 6560 ft | 257 kts | 306° |
| 2026-05-07 17:33 | -27.96739 | -63.85248 | 5957 ft | 257 kts | 305° |
| 2026-05-07 17:34 | -27.95641 | -63.86826 | 5360 ft | 257 kts | 305° |
| 2026-05-07 17:34 | -27.94531 | -63.88421 | 4871 ft | 257 kts | 305° |
| 2026-05-07 17:34 | -27.93419 | -63.90017 | 4529 ft | 258 kts | 305° |
| 2026-05-07 17:34 | -27.92320 | -63.91594 | 4185 ft | 259 kts | 305° |
| 2026-05-07 17:35 | -27.91192 | -63.93210 | 3833 ft | 259 kts | 305° |
| 2026-05-07 17:35 | -27.90082 | -63.94803 | 3487 ft | 259 kts | 305° |
| 2026-05-07 17:35 | -27.89013 | -63.96333 | 3151 ft | 260 kts | 305° |
| 2026-05-07 17:35 | -27.87852 | -63.97996 | 2786 ft | 260 kts | 305° |
| 2026-05-07 17:36 | -27.86725 | -63.99611 | 2449 ft | 259 kts | 305° |
| 2026-05-07 17:36 | -27.85609 | -64.01206 | 2312 ft | 259 kts | 305° |
| 2026-05-07 17:36 | -27.84486 | -64.02813 | 2304 ft | 260 kts | 305° |
| 2026-05-07 17:36 | -27.83365 | -64.04415 | 2302 ft | 260 kts | 305° |
| 2026-05-07 17:37 | -27.82243 | -64.06018 | 2302 ft | 260 kts | 305° |
| 2026-05-07 17:37 | -27.81124 | -64.07618 | 2302 ft | 260 kts | 305° |
| 2026-05-07 17:37 | -27.79999 | -64.09225 | 2302 ft | 260 kts | 305° |
| 2026-05-07 17:37 | -27.78867 | -64.10840 | 2302 ft | 260 kts | 305° |
| 2026-05-07 17:38 | -27.77742 | -64.12446 | 2302 ft | 259 kts | 305° |
| 2026-05-07 17:38 | -27.76683 | -64.13950 | 2280 ft | 228 kts | 305° |
| 2026-05-07 17:38 | -27.75770 | -64.15247 | 2348 ft | 194 kts | 304° |
| 2026-05-07 17:38 | -27.74943 | -64.16426 | 2291 ft | 186 kts | 304° |
| 2026-05-07 17:39 | -27.74139 | -64.17577 | 2297 ft | 186 kts | 304° |
| 2026-05-07 17:39 | -27.73329 | -64.18734 | 2301 ft | 187 kts | 304° |
| 2026-05-07 17:39 | -27.72519 | -64.19891 | 2302 ft | 187 kts | 304° |
| 2026-05-07 17:39 | -27.71727 | -64.21019 | 2302 ft | 187 kts | 304° |
| 2026-05-07 17:40 | -27.70904 | -64.22191 | 2302 ft | 187 kts | 304° |
| 2026-05-07 17:40 | -27.70097 | -64.23340 | 2302 ft | 187 kts | 304° |
| 2026-05-07 17:40 | -27.69317 | -64.24519 | 2251 ft | 184 kts | 295° |
| 2026-05-07 17:40 | -27.69121 | -64.25813 | 2108 ft | 159 kts | 258° |
| 2026-05-07 17:41 | -27.69563 | -64.26900 | 1880 ft | 154 kts | 232° |
| 2026-05-07 17:41 | -27.70408 | -64.27607 | 1662 ft | 151 kts | 206° |
| 2026-05-07 17:41 | -27.71385 | -64.28063 | 1566 ft | 148 kts | 201° |
| 2026-05-07 17:41 | -27.72361 | -64.28497 | 1494 ft | 151 kts | 202° |
| 2026-05-07 17:42 | -27.73288 | -64.28999 | 1336 ft | 136 kts | 206° |
| 2026-05-07 17:42 | -27.74060 | -64.29479 | 1067 ft | 117 kts | 208° |
| 2026-05-07 17:42 | -27.74761 | -64.29924 | 869 ft | 114 kts | 208° |
| 2026-05-07 17:42 | -27.75465 | -64.30346 | 714 ft | 114 kts | 207° |
| 2026-05-07 17:43 | -27.76124 | -64.30743 | 664 ft | 92 kts | 205° |
| 2026-05-07 17:43 | -27.76487 | -64.30953 | 664 ft | 33 kts | 208° |
| 2026-05-07 17:43 | -27.76571 | -64.30984 | 664 ft | 10 kts | 51° |
| 2026-05-07 17:43 | -27.76457 | -64.30924 | 664 ft | 26 kts | 29° |
| 2026-05-07 17:44 | -27.76242 | -64.30803 | 664 ft | 42 kts | 25° |
| 2026-05-07 17:44 | -27.75940 | -64.30621 | 664 ft | 51 kts | 30° |
| 2026-05-07 17:44 | -27.75752 | -64.30384 | 664 ft | 35 kts | 67° |
| 2026-05-07 17:44 | -27.75695 | -64.30187 | 664 ft | 15 kts | 75° |
| 2026-05-07 17:45 | -27.75669 | -64.30084 | 664 ft | 14 kts | 74° |
| 2026-05-07 17:45 | -27.75650 | -64.30006 | 664 ft | 7 kts | 76° |
| 2026-05-07 17:45 | -27.75660 | -64.29962 | 664 ft | 3 kts | 125° |
| 2026-05-07 17:45 | -27.75656 | -64.29930 | 664 ft | 3 kts | 46° |
| 2026-05-07 17:46 | -27.75646 | -64.29926 | 664 ft | 0 kts | 2° |